sensor_id;sensor_type;location;lat;lon;timestamp;pressure;altitude;pressure_sealevel;temperature;humidity
17785;BME280;9016;53.582;10.062;2022-10-18T00:00:58;102400.19;;;17.32;100.00
17785;BME280;9016;53.582;10.062;2022-10-18T00:03:26;102394.72;;;17.33;100.00
17785;BME280;9016;53.582;10.062;2022-10-18T00:05:54;102402.00;;;17.31;100.00
17785;BME280;9016;53.582;10.062;2022-10-18T00:08:22;102405.09;;;17.25;100.00
17785;BME280;9016;53.582;10.062;2022-10-18T00:10:52;102399.78;;;17.24;100.00
17785;BME280;9016;53.582;10.062;2022-10-18T00:13:21;102408.06;;;17.21;100.00
17785;BME280;9016;53.582;10.062;2022-10-18T00:15:50;102396.53;;;17.19;100.00
17785;BME280;9016;53.582;10.062;2022-10-18T00:18:18;102401.13;;;17.17;100.00
17785;BME280;9016;53.582;10.062;2022-10-18T00:20:56;102398.59;;;17.14;100.00
17785;BME280;9016;53.582;10.062;2022-10-18T00:23:24;102409.38;;;17.14;100.00
17785;BME280;9016;53.582;10.062;2022-10-18T00:26:04;102413.84;;;17.15;100.00
17785;BME280;9016;53.582;10.062;2022-10-18T00:28:33;102413.94;;;17.13;100.00
17785;BME280;9016;53.582;10.062;2022-10-18T00:31:12;102413.16;;;17.11;100.00
17785;BME280;9016;53.582;10.062;2022-10-18T00:33:41;102414.28;;;17.07;100.00
17785;BME280;9016;53.582;10.062;2022-10-18T00:36:10;102417.25;;;17.03;100.00
17785;BME280;9016;53.582;10.062;2022-10-18T00:38:39;102416.41;;;17.02;100.00
17785;BME280;9016;53.582;10.062;2022-10-18T00:41:09;102419.09;;;17.02;100.00
17785;BME280;9016;53.582;10.062;2022-10-18T00:43:55;102427.75;;;17.07;100.00
17785;BME280;9016;53.582;10.062;2022-10-18T00:46:26;102426.97;;;17.05;100.00
17785;BME280;9016;53.582;10.062;2022-10-18T00:48:56;102430.47;;;17.07;100.00
17785;BME280;9016;53.582;10.062;2022-10-18T00:51:27;102434.28;;;17.03;100.00
17785;BME280;9016;53.582;10.062;2022-10-18T00:53:57;102436.63;;;17.09;100.00
17785;BME280;9016;53.582;10.062;2022-10-18T00:56:26;102432.19;;;17.08;100.00
17785;BME280;9016;53.582;10.062;2022-10-18T00:58:56;102426.63;;;17.11;100.00
17785;BME280;9016;53.582;10.062;2022-10-18T01:01:24;102425.34;;;17.03;100.00
17785;BME280;9016;53.582;10.062;2022-10-18T01:03:54;102425.72;;;16.97;100.00
17785;BME280;9016;53.582;10.062;2022-10-18T01:06:23;102425.44;;;17.01;100.00
17785;BME280;9016;53.582;10.062;2022-10-18T01:09:09;102420.16;;;17.00;100.00
17785;BME280;9016;53.582;10.062;2022-10-18T01:14:46;102418.66;;;16.80;100.00
17785;BME280;9016;53.582;10.062;2022-10-18T01:17:20;102411.72;;;16.76;100.00
17785;BME280;9016;53.582;10.062;2022-10-18T01:20:15;102419.78;;;16.76;100.00
17785;BME280;9016;53.582;10.062;2022-10-18T01:22:47;102418.81;;;16.77;100.00
17785;BME280;9016;53.582;10.062;2022-10-18T01:25:31;102421.69;;;16.74;100.00
17785;BME280;9016;53.582;10.062;2022-10-18T01:28:12;102421.59;;;16.75;100.00
17785;BME280;9016;53.582;10.062;2022-10-18T01:30:52;102430.47;;;16.77;100.00
17785;BME280;9016;53.582;10.062;2022-10-18T01:33:31;102429.69;;;16.75;100.00
17785;BME280;9016;53.582;10.062;2022-10-18T01:36:04;102429.59;;;16.77;100.00
17785;BME280;9016;53.582;10.062;2022-10-18T01:38:35;102427.97;;;16.74;100.00
17785;BME280;9016;53.582;10.062;2022-10-18T01:41:05;102425.28;;;16.74;100.00
17785;BME280;9016;53.582;10.062;2022-10-18T01:43:41;102424.50;;;16.72;100.00
17785;BME280;9016;53.582;10.062;2022-10-18T01:46:12;102434.47;;;16.70;100.00
17785;BME280;9016;53.582;10.062;2022-10-18T01:48:43;102440.75;;;16.71;100.00
17785;BME280;9016;53.582;10.062;2022-10-18T01:51:11;102441.69;;;16.70;100.00
17785;BME280;9016;53.582;10.062;2022-10-18T01:53:39;102440.03;;;16.67;100.00
17785;BME280;9016;53.582;10.062;2022-10-18T01:56:21;102440.75;;;16.71;100.00
17785;BME280;9016;53.582;10.062;2022-10-18T01:58:58;102441.88;;;16.67;100.00
17785;BME280;9016;53.582;10.062;2022-10-18T02:01:38;102441.19;;;16.63;100.00
17785;BME280;9016;53.582;10.062;2022-10-18T02:04:18;102438.50;;;16.63;100.00
17785;BME280;9016;53.582;10.062;2022-10-18T02:06:53;102448.38;;;16.63;100.00
17785;BME280;9016;53.582;10.062;2022-10-18T02:09:28;102442.22;;;16.61;100.00
17785;BME280;9016;53.582;10.062;2022-10-18T02:12:00;102445.00;;;16.59;100.00
17785;BME280;9016;53.582;10.062;2022-10-18T02:14:31;102441.34;;;16.60;100.00
17785;BME280;9016;53.582;10.062;2022-10-18T02:17:03;102435.97;;;16.60;100.00
17785;BME280;9016;53.582;10.062;2022-10-18T02:19:35;102454.22;;;16.55;100.00
17785;BME280;9016;53.582;10.062;2022-10-18T02:22:06;102444.31;;;16.56;100.00
17785;BME280;9016;53.582;10.062;2022-10-18T02:24:37;102430.09;;;16.54;100.00
17785;BME280;9016;53.582;10.062;2022-10-18T02:27:06;102435.47;;;16.54;100.00
17785;BME280;9016;53.582;10.062;2022-10-18T02:29:35;102429.41;;;16.50;100.00
17785;BME280;9016;53.582;10.062;2022-10-18T02:32:09;102424.00;;;16.50;100.00
17785;BME280;9016;53.582;10.062;2022-10-18T02:34:40;102418.72;;;16.49;100.00
17785;BME280;9016;53.582;10.062;2022-10-18T02:37:10;102434.06;;;16.47;100.00
17785;BME280;9016;53.582;10.062;2022-10-18T02:39:42;102423.28;;;16.47;100.00
17785;BME280;9016;53.582;10.062;2022-10-18T02:42:12;102417.03;;;16.46;100.00
17785;BME280;9016;53.582;10.062;2022-10-18T02:44:40;102425.06;;;16.48;100.00
17785;BME280;9016;53.582;10.062;2022-10-18T02:47:10;102425.06;;;16.48;100.00
17785;BME280;9016;53.582;10.062;2022-10-18T02:49:38;102434.00;;;16.48;100.00
17785;BME280;9016;53.582;10.062;2022-10-18T02:52:06;102434.88;;;16.49;100.00
17785;BME280;9016;53.582;10.062;2022-10-18T02:54:34;102430.09;;;16.54;100.00
17785;BME280;9016;53.582;10.062;2022-10-18T02:57:02;102430.09;;;16.54;100.00
17785;BME280;9016;53.582;10.062;2022-10-18T02:59:30;102428.28;;;16.54;100.00
17785;BME280;9016;53.582;10.062;2022-10-18T03:01:58;102435.97;;;16.60;100.00
17785;BME280;9016;53.582;10.062;2022-10-18T03:04:27;102431.34;;;16.62;100.00
17785;BME280;9016;53.582;10.062;2022-10-18T03:06:55;102425.19;;;16.60;100.00
17785;BME280;9016;53.582;10.062;2022-10-18T03:09:25;102426.94;;;16.61;100.00
17785;BME280;9016;53.582;10.062;2022-10-18T03:11:53;102424.34;;;16.60;100.00
17785;BME280;9016;53.582;10.062;2022-10-18T03:14:21;102420.94;;;16.56;100.00
17785;BME280;9016;53.582;10.062;2022-10-18T03:16:49;102415.16;;;16.48;100.00
17785;BME280;9016;53.582;10.062;2022-10-18T03:19:16;102413.41;;;16.47;100.00
17785;BME280;9016;53.582;10.062;2022-10-18T03:21:46;102406.13;;;16.49;100.00
17785;BME280;9016;53.582;10.062;2022-10-18T03:24:14;102407.97;;;16.49;100.00
17785;BME280;9016;53.582;10.062;2022-10-18T03:26:41;102415.06;;;16.50;100.00
17785;BME280;9016;53.582;10.062;2022-10-18T03:29:10;102413.34;;;16.49;100.00
17785;BME280;9016;53.582;10.062;2022-10-18T03:31:38;102406.91;;;16.51;100.00
17785;BME280;9016;53.582;10.062;2022-10-18T03:34:06;102404.97;;;16.53;100.00
17785;BME280;9016;53.582;10.062;2022-10-18T03:36:34;102406.81;;;16.53;100.00
17785;BME280;9016;53.582;10.062;2022-10-18T03:39:03;102420.09;;;16.56;100.00
17785;BME280;9016;53.582;10.062;2022-10-18T03:41:31;102415.50;;;16.58;100.00
17785;BME280;9016;53.582;10.062;2022-10-18T03:43:59;102406.19;;;16.63;100.00
17785;BME280;9016;53.582;10.062;2022-10-18T03:46:26;102414.94;;;16.67;100.00
17785;BME280;9016;53.582;10.062;2022-10-18T03:48:54;102416.00;;;16.64;100.00
17785;BME280;9016;53.582;10.062;2022-10-18T03:51:22;102417.81;;;16.64;100.00
17785;BME280;9016;53.582;10.062;2022-10-18T03:53:50;102413.38;;;16.63;100.00
17785;BME280;9016;53.582;10.062;2022-10-18T03:56:19;102418.00;;;16.61;100.00
17785;BME280;9016;53.582;10.062;2022-10-18T03:58:47;102402.19;;;16.55;100.00
17785;BME280;9016;53.582;10.062;2022-10-18T04:01:15;102400.56;;;16.52;100.00
17785;BME280;9016;53.582;10.062;2022-10-18T04:03:43;102401.41;;;16.53;100.00
17785;BME280;9016;53.582;10.062;2022-10-18T04:06:10;102403.16;;;16.54;100.00
17785;BME280;9016;53.582;10.062;2022-10-18T04:08:38;102405.84;;;16.54;100.00
17785;BME280;9016;53.582;10.062;2022-10-18T04:11:06;102409.59;;;16.51;100.00
17785;BME280;9016;53.582;10.062;2022-10-18T04:13:36;102404.53;;;16.45;100.00
17785;BME280;9016;53.582;10.062;2022-10-18T04:16:04;102403.84;;;16.42;100.00
17785;BME280;9016;53.582;10.062;2022-10-18T04:18:32;102401.25;;;16.40;100.00
17785;BME280;9016;53.582;10.062;2022-10-18T04:21:00;102399.53;;;16.39;100.00
17785;BME280;9016;53.582;10.062;2022-10-18T04:23:28;102402.47;;;16.35;100.00
17785;BME280;9016;53.582;10.062;2022-10-18T04:26:01;102405.34;;;16.32;100.00
17785;BME280;9016;53.582;10.062;2022-10-18T04:28:29;102405.59;;;16.27;100.00
17785;BME280;9016;53.582;10.062;2022-10-18T04:30:59;102391.34;;;16.25;100.00
17785;BME280;9016;53.582;10.062;2022-10-18T04:33:26;102396.59;;;16.28;100.00
17785;BME280;9016;53.582;10.062;2022-10-18T04:35:54;102393.09;;;16.26;100.00
17785;BME280;9016;53.582;10.062;2022-10-18T04:38:22;102387.88;;;16.23;100.00
17785;BME280;9016;53.582;10.062;2022-10-18T04:40:50;102392.50;;;16.21;100.00
17785;BME280;9016;53.582;10.062;2022-10-18T04:43:18;102379.91;;;16.22;100.00
17785;BME280;9016;53.582;10.062;2022-10-18T04:45:46;102388.84;;;16.22;100.00
17785;BME280;9016;53.582;10.062;2022-10-18T04:48:18;102389.81;;;16.21;100.00
17785;BME280;9016;53.582;10.062;2022-10-18T04:50:47;102392.50;;;16.21;100.00
17785;BME280;9016;53.582;10.062;2022-10-18T04:53:16;102397.81;;;16.23;100.00
17785;BME280;9016;53.582;10.062;2022-10-18T04:55:44;102396.94;;;16.22;100.00
17785;BME280;9016;53.582;10.062;2022-10-18T04:58:12;102401.34;;;16.23;100.00
17785;BME280;9016;53.582;10.062;2022-10-18T05:00:41;102407.50;;;16.25;100.00
17785;BME280;9016;53.582;10.062;2022-10-18T05:03:10;102405.78;;;16.24;100.00
17785;BME280;9016;53.582;10.062;2022-10-18T05:05:40;102409.25;;;16.26;100.00
17785;BME280;9016;53.582;10.062;2022-10-18T05:08:27;102407.34;;;16.28;100.00
17785;BME280;9016;53.582;10.062;2022-10-18T05:10:55;102398.31;;;16.29;100.00
17785;BME280;9016;53.582;10.062;2022-10-18T05:13:23;102393.25;;;16.23;100.00
17785;BME280;9016;53.582;10.062;2022-10-18T05:15:51;102392.75;;;16.17;100.00
17785;BME280;9016;53.582;10.062;2022-10-18T05:18:19;102390.16;;;16.15;100.00
17785;BME280;9016;53.582;10.062;2022-10-18T05:20:48;102375.59;;;16.19;100.00
17785;BME280;9016;53.582;10.062;2022-10-18T05:23:16;102384.44;;;16.21;100.00
17785;BME280;9016;53.582;10.062;2022-10-18T05:25:44;102386.84;;;16.26;100.00
17785;BME280;9016;53.582;10.062;2022-10-18T05:28:12;102392.75;;;16.32;100.00
17785;BME280;9016;53.582;10.062;2022-10-18T05:31:01;102392.91;;;16.29;100.00
17785;BME280;9016;53.582;10.062;2022-10-18T05:33:29;102398.16;;;16.32;100.00
17785;BME280;9016;53.582;10.062;2022-10-18T05:35:58;102392.44;;;16.23;100.00
17785;BME280;9016;53.582;10.062;2022-10-18T05:38:26;102402.81;;;16.29;100.00
17785;BME280;9016;53.582;10.062;2022-10-18T05:40:56;102403.88;;;16.26;100.00
17785;BME280;9016;53.582;10.062;2022-10-18T05:43:26;102401.00;;;16.29;100.00
17785;BME280;9016;53.582;10.062;2022-10-18T05:45:55;102400.50;;;16.23;100.00
17785;BME280;9016;53.582;10.062;2022-10-18T05:48:23;102412.88;;;16.25;100.00
17785;BME280;9016;53.582;10.062;2022-10-18T05:50:52;102415.84;;;16.21;100.00
17785;BME280;9016;53.582;10.062;2022-10-18T05:53:21;102403.97;;;16.09;100.00
17785;BME280;9016;53.582;10.062;2022-10-18T05:56:05;102404.72;;;15.96;100.00
17785;BME280;9016;53.582;10.062;2022-10-18T05:58:34;102417.94;;;16.00;100.00
17785;BME280;9016;53.582;10.062;2022-10-18T06:01:03;102413.94;;;16.07;100.00
17785;BME280;9016;53.582;10.062;2022-10-18T06:03:31;102420.69;;;16.14;100.00
17785;BME280;9016;53.582;10.062;2022-10-18T06:06:00;102420.00;;;16.11;100.00
17785;BME280;9016;53.582;10.062;2022-10-18T06:08:30;102418.97;;;16.13;100.00
17785;BME280;9016;53.582;10.062;2022-10-18T06:10:57;102433.88;;;16.03;100.00
17785;BME280;9016;53.582;10.062;2022-10-18T06:13:25;102431.28;;;16.02;100.00
17785;BME280;9016;53.582;10.062;2022-10-18T06:15:59;102432.84;;;16.06;100.00
17785;BME280;9016;53.582;10.062;2022-10-18T06:18:27;102436.50;;;16.05;100.00
17785;BME280;9016;53.582;10.062;2022-10-18T06:20:56;102438.75;;;16.12;100.00
17785;BME280;9016;53.582;10.062;2022-10-18T06:23:25;102426.06;;;16.14;100.00
17785;BME280;9016;53.582;10.062;2022-10-18T06:25:57;102420.34;;;16.20;100.00
17785;BME280;9016;53.582;10.062;2022-10-18T06:28:26;102429.03;;;16.25;99.70
17785;BME280;9016;53.582;10.062;2022-10-18T06:30:54;102422.00;;;16.23;99.22
17785;BME280;9016;53.582;10.062;2022-10-18T06:33:23;102413.16;;;16.21;99.30
17785;BME280;9016;53.582;10.062;2022-10-18T06:35:56;102416.09;;;16.16;99.50
17785;BME280;9016;53.582;10.062;2022-10-18T06:38:25;102416.63;;;16.23;99.72
17785;BME280;9016;53.582;10.062;2022-10-18T06:40:54;102423.03;;;16.20;98.63
17785;BME280;9016;53.582;10.062;2022-10-18T06:43:23;102428.22;;;16.23;99.42
17785;BME280;9016;53.582;10.062;2022-10-18T06:45:51;102418.78;;;16.32;99.04
17785;BME280;9016;53.582;10.062;2022-10-18T06:48:20;102425.19;;;16.29;97.54
17785;BME280;9016;53.582;10.062;2022-10-18T06:50:53;102440.22;;;16.33;97.76
17785;BME280;9016;53.582;10.062;2022-10-18T06:53:22;102441.34;;;16.29;97.28
17785;BME280;9016;53.582;10.062;2022-10-18T06:55:50;102445.16;;;16.25;96.71
17785;BME280;9016;53.582;10.062;2022-10-18T06:58:19;102455.13;;;16.23;96.13
17785;BME280;9016;53.582;10.062;2022-10-18T07:00:47;102457.06;;;16.21;95.23
17785;BME280;9016;53.582;10.062;2022-10-18T07:03:15;102450.63;;;16.24;95.56
17785;BME280;9016;53.582;10.062;2022-10-18T07:05:43;102452.09;;;16.29;95.29
17785;BME280;9016;53.582;10.062;2022-10-18T07:08:10;102452.78;;;16.33;94.79
17785;BME280;9016;53.582;10.062;2022-10-18T07:10:38;102465.22;;;16.35;94.60
17785;BME280;9016;53.582;10.062;2022-10-18T07:13:06;102473.75;;;16.43;94.58
17785;BME280;9016;53.582;10.062;2022-10-18T07:16:03;102471.19;;;16.40;93.12
17785;BME280;9016;53.582;10.062;2022-10-18T07:18:33;102476.44;;;16.43;93.71
17785;BME280;9016;53.582;10.062;2022-10-18T07:21:02;102482.25;;;16.51;94.39
17785;BME280;9016;53.582;10.062;2022-10-18T07:23:31;102489.09;;;16.57;92.69
17785;BME280;9016;53.582;10.062;2022-10-18T07:25:59;102487.19;;;16.59;92.94
17785;BME280;9016;53.582;10.062;2022-10-18T07:28:27;102487.00;;;16.62;92.94
17785;BME280;9016;53.582;10.062;2022-10-18T07:30:55;102484.41;;;16.60;93.63
17785;BME280;9016;53.582;10.062;2022-10-18T07:33:31;102487.72;;;16.65;92.25
17785;BME280;9016;53.582;10.062;2022-10-18T07:36:00;102488.16;;;16.58;92.09
17785;BME280;9016;53.582;10.062;2022-10-18T07:38:28;102492.22;;;16.49;92.18
17785;BME280;9016;53.582;10.062;2022-10-18T07:40:56;102495.91;;;16.48;92.45
17785;BME280;9016;53.582;10.062;2022-10-18T07:43:24;102492.06;;;16.52;91.88
17785;BME280;9016;53.582;10.062;2022-10-18T07:45:53;102502.22;;;16.63;91.32
17785;BME280;9016;53.582;10.062;2022-10-18T07:48:21;102494.06;;;16.64;90.68
17785;BME280;9016;53.582;10.062;2022-10-18T07:50:51;102495.53;;;16.70;90.49
17785;BME280;9016;53.582;10.062;2022-10-18T07:53:19;102503.69;;;16.68;91.63
17785;BME280;9016;53.582;10.062;2022-10-18T07:55:47;102494.50;;;16.72;90.78
17785;BME280;9016;53.582;10.062;2022-10-18T07:58:15;102495.56;;;16.84;91.14
17785;BME280;9016;53.582;10.062;2022-10-18T08:00:42;102497.75;;;16.93;90.31
17785;BME280;9016;53.582;10.062;2022-10-18T08:03:10;102499.28;;;16.97;89.54
17785;BME280;9016;53.582;10.062;2022-10-18T08:05:38;102494.78;;;16.98;89.29
17785;BME280;9016;53.582;10.062;2022-10-18T08:08:07;102499.38;;;16.96;89.25
17785;BME280;9016;53.582;10.062;2022-10-18T08:10:35;102496.97;;;16.91;89.12
17785;BME280;9016;53.582;10.062;2022-10-18T08:13:03;102499.38;;;16.96;89.86
17785;BME280;9016;53.582;10.062;2022-10-18T08:15:31;102487.72;;;16.95;88.59
17785;BME280;9016;53.582;10.062;2022-10-18T08:17:59;102492.28;;;16.95;89.54
17785;BME280;9016;53.582;10.062;2022-10-18T08:20:27;102496.53;;;16.99;89.52
17785;BME280;9016;53.582;10.062;2022-10-18T08:22:57;102494.31;;;17.05;88.63
17785;BME280;9016;53.582;10.062;2022-10-18T08:25:27;102493.28;;;17.08;88.73
17785;BME280;9016;53.582;10.062;2022-10-18T08:27:56;102509.03;;;17.00;88.06
17785;BME280;9016;53.582;10.062;2022-10-18T08:30:24;102484.78;;;17.00;88.68
17785;BME280;9016;53.582;10.062;2022-10-18T08:32:51;102490.81;;;16.89;87.94
17785;BME280;9016;53.582;10.062;2022-10-18T08:35:19;102482.59;;;16.76;89.24
17785;BME280;9016;53.582;10.062;2022-10-18T08:37:47;102478.66;;;16.82;89.36
17785;BME280;9016;53.582;10.062;2022-10-18T08:40:15;102481.50;;;16.95;89.17
17785;BME280;9016;53.582;10.062;2022-10-18T08:42:54;102491.75;;;16.88;87.58
17785;BME280;9016;53.582;10.062;2022-10-18T08:45:26;102483.41;;;16.93;89.43
17785;BME280;9016;53.582;10.062;2022-10-18T08:48:16;102495.09;;;17.07;88.71
17785;BME280;9016;53.582;10.062;2022-10-18T08:50:48;102497.91;;;17.06;87.76
17785;BME280;9016;53.582;10.062;2022-10-18T08:53:21;102500.34;;;16.95;86.40
17785;BME280;9016;53.582;10.062;2022-10-18T08:55:54;102496.53;;;16.99;86.28
17785;BME280;9016;53.582;10.062;2022-10-18T08:58:28;102505.00;;;17.07;86.22
17785;BME280;9016;53.582;10.062;2022-10-18T09:01:04;102500.53;;;17.21;86.23
17785;BME280;9016;53.582;10.062;2022-10-18T09:03:49;102492.13;;;17.12;84.86
17785;BME280;9016;53.582;10.062;2022-10-18T09:06:24;102507.13;;;17.02;85.21
17785;BME280;9016;53.582;10.062;2022-10-18T09:09:06;102512.16;;;17.08;86.24
17785;BME280;9016;53.582;10.062;2022-10-18T09:11:49;102513.88;;;17.09;85.65
17785;BME280;9016;53.582;10.062;2022-10-18T09:17:28;102507.13;;;17.02;85.36
17785;BME280;9016;53.582;10.062;2022-10-18T09:20:20;102514.91;;;17.06;85.97
17785;BME280;9016;53.582;10.062;2022-10-18T09:22:54;102513.81;;;16.95;86.71
17785;BME280;9016;53.582;10.062;2022-10-18T09:25:24;102503.06;;;16.95;86.52
17785;BME280;9016;53.582;10.062;2022-10-18T09:27:54;102505.56;;;16.98;87.23
17785;BME280;9016;53.582;10.062;2022-10-18T09:30:31;102507.59;;;17.08;86.80
17785;BME280;9016;53.582;10.062;2022-10-18T09:33:17;102503.63;;;17.00;86.64
17785;BME280;9016;53.582;10.062;2022-10-18T09:35:49;102511.97;;;16.95;86.53
17785;BME280;9016;53.582;10.062;2022-10-18T09:38:23;102511.91;;;16.81;86.34
17785;BME280;9016;53.582;10.062;2022-10-18T09:40:56;102508.03;;;16.71;87.25
17785;BME280;9016;53.582;10.062;2022-10-18T09:43:34;102506.47;;;16.67;87.30
17785;BME280;9016;53.582;10.062;2022-10-18T09:46:04;102507.84;;;16.74;88.00
17785;BME280;9016;53.582;10.062;2022-10-18T09:48:41;102513.75;;;16.80;88.23
17785;BME280;9016;53.582;10.062;2022-10-18T09:51:14;102515.63;;;16.94;87.86
17785;BME280;9016;53.582;10.062;2022-10-18T09:54:07;102513.78;;;17.10;86.36
17785;BME280;9016;53.582;10.062;2022-10-18T09:56:44;102512.06;;;17.09;84.38
17785;BME280;9016;53.582;10.062;2022-10-18T09:59:26;102503.78;;;17.12;83.58
17785;BME280;9016;53.582;10.062;2022-10-18T10:01:56;102505.69;;;17.10;83.71
17785;BME280;9016;53.582;10.062;2022-10-18T10:04:26;102499.16;;;17.14;81.87
17785;BME280;9016;53.582;10.062;2022-10-18T10:06:54;102504.38;;;17.17;81.89
17785;BME280;9016;53.582;10.062;2022-10-18T10:09:26;102499.69;;;17.21;81.29
17785;BME280;9016;53.582;10.062;2022-10-18T10:11:55;102498.25;;;17.29;81.03
17785;BME280;9016;53.582;10.062;2022-10-18T10:14:25;102497.66;;;17.24;80.63
17785;BME280;9016;53.582;10.062;2022-10-18T10:16:56;102490.63;;;17.22;79.96
17785;BME280;9016;53.582;10.062;2022-10-18T10:19:31;102497.66;;;17.24;80.48
17785;BME280;9016;53.582;10.062;2022-10-18T10:22:11;102497.84;;;17.21;79.90
17785;BME280;9016;53.582;10.062;2022-10-18T10:24:45;102497.25;;;17.16;79.92
17785;BME280;9016;53.582;10.062;2022-10-18T10:27:18;102492.91;;;17.14;79.28
17785;BME280;9016;53.582;10.062;2022-10-18T10:29:49;102500.38;;;17.24;80.11
17785;BME280;9016;53.582;10.062;2022-10-18T10:32:20;102503.59;;;17.45;80.07
17785;BME280;9016;53.582;10.062;2022-10-18T10:34:50;102501.81;;;17.59;79.02
17785;BME280;9016;53.582;10.062;2022-10-18T10:37:28;102507.78;;;17.78;78.41
17785;BME280;9016;53.582;10.062;2022-10-18T10:40:18;102504.50;;;17.88;77.13
17785;BME280;9016;53.582;10.062;2022-10-18T10:43:01;102504.78;;;17.69;76.92
17785;BME280;9016;53.582;10.062;2022-10-18T10:45:56;102502.75;;;17.58;76.03
17785;BME280;9016;53.582;10.062;2022-10-18T10:48:25;102508.34;;;17.69;77.68
17785;BME280;9016;53.582;10.062;2022-10-18T10:51:03;102514.84;;;17.81;77.74
17785;BME280;9016;53.582;10.062;2022-10-18T10:53:41;102518.31;;;17.83;74.36
17785;BME280;9016;53.582;10.062;2022-10-18T10:56:17;102512.03;;;17.83;73.91
17785;BME280;9016;53.582;10.062;2022-10-18T10:58:47;102517.53;;;17.81;73.98
17785;BME280;9016;53.582;10.062;2022-10-18T11:01:23;102521.19;;;17.94;73.75
17785;BME280;9016;53.582;10.062;2022-10-18T11:03:53;102515.69;;;17.96;74.31
17785;BME280;9016;53.582;10.062;2022-10-18T11:06:46;102533.03;;;17.92;72.17
17785;BME280;9016;53.582;10.062;2022-10-18T11:09:26;102523.09;;;18.06;72.40
17785;BME280;9016;53.582;10.062;2022-10-18T11:12:12;102524.94;;;18.20;71.21
17785;BME280;9016;53.582;10.062;2022-10-18T11:14:45;102532.44;;;18.01;70.60
17785;BME280;9016;53.582;10.062;2022-10-18T11:17:21;102535.06;;;17.88;70.08
17785;BME280;9016;53.582;10.062;2022-10-18T11:20:09;102536.59;;;17.92;70.10
17785;BME280;9016;53.582;10.062;2022-10-18T11:22:43;102530.06;;;17.96;70.10
17785;BME280;9016;53.582;10.062;2022-10-18T11:25:14;102534.22;;;18.02;69.88
17785;BME280;9016;53.582;10.062;2022-10-18T11:27:48;102532.66;;;17.98;68.51
17785;BME280;9016;53.582;10.062;2022-10-18T11:30:44;102533.31;;;17.73;68.40
17785;BME280;9016;53.582;10.062;2022-10-18T11:33:24;102543.41;;;17.55;68.77
17785;BME280;9016;53.582;10.062;2022-10-18T11:36:19;102525.41;;;17.40;69.83
17785;BME280;9016;53.582;10.062;2022-10-18T11:38:55;102523.69;;;17.39;69.88
17785;BME280;9016;53.582;10.062;2022-10-18T11:41:29;102532.94;;;17.35;69.66
17785;BME280;9016;53.582;10.062;2022-10-18T11:43:59;102529.50;;;17.47;69.43
17785;BME280;9016;53.582;10.062;2022-10-18T11:46:56;102524.63;;;17.54;70.70
17785;BME280;9016;53.582;10.062;2022-10-18T11:49:46;102524.75;;;17.66;70.46
17785;BME280;9016;53.582;10.062;2022-10-18T11:52:22;102528.72;;;17.89;68.78
17785;BME280;9016;53.582;10.062;2022-10-18T11:55:10;102519.75;;;18.03;65.79
17785;BME280;9016;53.582;10.062;2022-10-18T11:57:49;102521.97;;;18.10;65.00
17785;BME280;9016;53.582;10.062;2022-10-18T12:00:34;102531.78;;;17.97;64.64
17785;BME280;9016;53.582;10.062;2022-10-18T12:03:23;102533.31;;;17.73;64.01
17785;BME280;9016;53.582;10.062;2022-10-18T12:05:55;102534.06;;;17.61;65.97
17785;BME280;9016;53.582;10.062;2022-10-18T12:08:27;102533.19;;;17.60;66.48
17785;BME280;9016;53.582;10.062;2022-10-18T12:11:02;102528.78;;;17.59;66.77
17785;BME280;9016;53.582;10.062;2022-10-18T12:13:36;102525.63;;;17.67;66.92
17785;BME280;9016;53.582;10.062;2022-10-18T12:16:07;102522.22;;;17.63;67.17
17785;BME280;9016;53.582;10.062;2022-10-18T12:18:44;102520.59;;;17.61;66.74
17785;BME280;9016;53.582;10.062;2022-10-18T12:21:14;102520.59;;;17.61;65.92
17785;BME280;9016;53.582;10.062;2022-10-18T12:23:53;102519.91;;;17.57;64.34
17785;BME280;9016;53.582;10.062;2022-10-18T12:26:24;102508.66;;;17.65;64.71
17785;BME280;9016;53.582;10.062;2022-10-18T12:29:04;102512.72;;;17.72;64.48
17785;BME280;9016;53.582;10.062;2022-10-18T12:31:38;102509.03;;;17.73;63.84
17785;BME280;9016;53.582;10.062;2022-10-18T12:34:22;102512.41;;;17.76;62.68
17785;BME280;9016;53.582;10.062;2022-10-18T12:39:48;102514.06;;;17.65;61.23
17785;BME280;9016;53.582;10.062;2022-10-18T12:42:42;102517.63;;;17.79;61.54
17785;BME280;9016;53.582;10.062;2022-10-18T12:45:32;102510.78;;;17.88;59.73
17785;BME280;9016;53.582;10.062;2022-10-18T12:48:04;102521.09;;;17.96;59.57
17785;BME280;9016;53.582;10.062;2022-10-18T12:50:35;102517.25;;;18.00;59.72
17785;BME280;9016;53.582;10.062;2022-10-18T12:53:13;102518.88;;;18.16;59.41
17785;BME280;9016;53.582;10.062;2022-10-18T12:55:45;102514.06;;;18.07;58.08
17785;BME280;9016;53.582;10.062;2022-10-18T12:58:27;102518.88;;;18.02;58.07
17785;BME280;9016;53.582;10.062;2022-10-18T13:01:13;102515.22;;;18.03;58.75
17785;BME280;9016;53.582;10.062;2022-10-18T13:03:59;102516.66;;;18.09;59.33
17785;BME280;9016;53.582;10.062;2022-10-18T13:07:10;102513.56;;;18.29;59.25
17785;BME280;9016;53.582;10.062;2022-10-18T13:09:39;102509.59;;;18.48;56.99
17785;BME280;9016;53.582;10.062;2022-10-18T13:12:36;102515.38;;;18.56;56.66
17785;BME280;9016;53.582;10.062;2022-10-18T13:15:30;102515.84;;;18.49;57.82
17785;BME280;9016;53.582;10.062;2022-10-18T13:18:08;102514.59;;;18.40;58.29
17785;BME280;9016;53.582;10.062;2022-10-18T13:20:47;102517.69;;;18.34;58.80
17785;BME280;9016;53.582;10.062;2022-10-18T13:23:31;102521.94;;;18.24;59.74